createdAt,value
2018-08-16T00:00:15.051Z,18.90
2018-08-16T00:02:43.936Z,18.90
2018-08-16T00:05:13.041Z,18.80
2018-08-16T00:07:41.536Z,18.70
2018-08-16T00:10:12.936Z,18.70
2018-08-16T00:12:42.640Z,18.70
2018-08-16T00:15:18.673Z,18.60
2018-08-16T00:17:46.893Z,18.60
2018-08-16T00:20:15.291Z,18.60
2018-08-16T00:22:44.182Z,18.70
2018-08-16T00:25:12.709Z,18.60
2018-08-16T00:27:41.018Z,18.60
2018-08-16T00:30:15.520Z,18.60
2018-08-16T00:32:44.247Z,18.60
2018-08-16T00:35:12.744Z,18.60
2018-08-16T00:37:41.281Z,18.60
2018-08-16T00:40:13.543Z,18.60
2018-08-16T00:42:41.994Z,18.50
2018-08-16T00:45:11.230Z,18.50
2018-08-16T00:47:39.770Z,18.50
2018-08-16T00:50:11.597Z,18.50
2018-08-16T00:52:41.499Z,18.30
2018-08-16T00:55:12.579Z,18.50
2018-08-16T00:57:40.977Z,18.30
2018-08-16T01:00:12.038Z,18.30
2018-08-16T01:02:40.911Z,18.30
2018-08-16T01:05:09.118Z,18.30
2018-08-16T01:07:37.354Z,18.30
2018-08-16T01:10:08.154Z,18.20
2018-08-16T01:12:36.799Z,18.20
2018-08-16T01:15:08.293Z,18.10
2018-08-16T01:17:36.779Z,18.10
2018-08-16T01:20:05.133Z,18.10
2018-08-16T01:22:34.415Z,18.00
2018-08-16T01:25:02.682Z,18.00
2018-08-16T01:27:31.169Z,18.00
2018-08-16T01:29:59.369Z,18.00
2018-08-16T01:32:27.942Z,18.00
2018-08-16T01:34:56.754Z,18.00
2018-08-16T01:37:25.696Z,17.90
2018-08-16T01:39:53.906Z,17.80
2018-08-16T01:42:22.038Z,17.80
2018-08-16T01:44:50.464Z,17.70
2018-08-16T01:47:18.957Z,17.70
2018-08-16T01:50:08.447Z,17.70
2018-08-16T01:52:36.728Z,17.60
2018-08-16T01:55:06.005Z,17.70
2018-08-16T01:57:34.281Z,17.70
2018-08-16T02:00:03.636Z,17.70
2018-08-16T02:02:31.889Z,17.70
2018-08-16T02:05:00.106Z,17.70
2018-08-16T02:07:28.508Z,17.70
2018-08-16T02:09:57.644Z,17.70
2018-08-16T02:12:25.983Z,17.60
2018-08-16T02:14:54.441Z,17.50
2018-08-16T02:17:22.800Z,17.50
2018-08-16T02:19:50.998Z,17.60
2018-08-16T02:22:19.808Z,17.50
2018-08-16T02:24:48.309Z,17.60
2018-08-16T02:27:16.560Z,17.50
2018-08-16T02:29:44.774Z,17.50
2018-08-16T02:32:13.199Z,17.50
2018-08-16T02:34:41.417Z,17.50
2018-08-16T02:37:09.663Z,17.50
2018-08-16T02:39:37.924Z,17.40
2018-08-16T02:42:06.428Z,17.40
2018-08-16T02:44:34.921Z,17.40
2018-08-16T02:47:03.581Z,17.40
2018-08-16T02:49:32.073Z,17.30
2018-08-16T02:52:00.588Z,17.30
2018-08-16T02:54:29.000Z,17.40
2018-08-16T02:56:57.364Z,17.40
2018-08-16T02:59:25.659Z,17.30
2018-08-16T03:01:53.801Z,17.30
2018-08-16T03:04:22.031Z,17.20
2018-08-16T03:06:51.170Z,17.20
2018-08-16T03:09:20.341Z,17.20
2018-08-16T03:11:48.797Z,17.20
2018-08-16T03:14:17.634Z,17.20
2018-08-16T03:16:46.181Z,17.20
2018-08-16T03:19:14.394Z,17.20
2018-08-16T03:21:42.961Z,17.10
2018-08-16T03:24:11.144Z,17.10
2018-08-16T03:26:39.573Z,17.10
2018-08-16T03:29:07.762Z,17.10
2018-08-16T03:31:36.596Z,17.00
2018-08-16T03:34:05.096Z,17.00
2018-08-16T03:36:34.045Z,17.00
2018-08-16T03:39:04.640Z,17.00
2018-08-16T03:41:33.356Z,16.90
2018-08-16T03:44:01.721Z,16.90
2018-08-16T03:46:30.331Z,16.80
2018-08-16T03:48:59.104Z,16.70
2018-08-16T03:51:27.317Z,16.80
2018-08-16T03:53:55.504Z,16.70
2018-08-16T03:56:24.098Z,16.80
2018-08-16T03:58:52.281Z,16.70
2018-08-16T04:01:20.502Z,16.70
2018-08-16T04:03:49.019Z,16.70
2018-08-16T04:06:17.453Z,16.60
2018-08-16T04:08:46.043Z,16.60
2018-08-16T04:11:14.298Z,16.60
2018-08-16T04:13:42.513Z,16.60
2018-08-16T04:16:10.759Z,16.50
2018-08-16T04:18:39.631Z,16.50
2018-08-16T04:21:08.096Z,16.40
2018-08-16T04:23:36.350Z,16.50
2018-08-16T04:26:05.188Z,16.60
2018-08-16T04:28:33.656Z,16.60
2018-08-16T04:31:01.910Z,16.60
2018-08-16T04:33:30.911Z,16.60
2018-08-16T04:35:59.429Z,16.60
2018-08-16T04:38:27.644Z,16.60
2018-08-16T04:40:55.828Z,16.70
2018-08-16T04:43:24.094Z,16.60
2018-08-16T04:45:52.737Z,16.70
2018-08-16T04:48:24.654Z,16.60
2018-08-16T04:50:53.087Z,16.60
2018-08-16T04:53:21.279Z,16.60
2018-08-16T04:55:49.552Z,16.60
2018-08-16T04:58:18.426Z,16.60
2018-08-16T05:00:46.616Z,16.60
2018-08-16T05:03:14.804Z,16.60
2018-08-16T05:05:43.308Z,16.60
2018-08-16T05:08:11.836Z,16.60
2018-08-16T05:10:40.287Z,16.70
2018-08-16T05:13:08.971Z,16.70
2018-08-16T05:15:37.713Z,16.80
2018-08-16T05:18:06.221Z,16.80
2018-08-16T05:20:34.460Z,16.90
2018-08-16T05:23:02.644Z,16.90
2018-08-16T05:25:31.644Z,17.00
2018-08-16T05:28:00.314Z,17.10
2018-08-16T05:30:29.010Z,17.10
2018-08-16T05:32:57.871Z,17.10
2018-08-16T05:35:26.576Z,17.10
2018-08-16T05:37:54.868Z,17.10
2018-08-16T05:40:23.290Z,17.20
2018-08-16T05:42:52.116Z,17.50
2018-08-16T05:45:20.486Z,17.40
2018-08-16T05:47:48.666Z,17.50
2018-08-16T05:50:17.185Z,17.80
2018-08-16T05:52:45.452Z,17.70
2018-08-16T05:55:13.617Z,17.80
2018-08-16T05:57:42.034Z,17.90
2018-08-16T06:00:13.052Z,17.90
2018-08-16T06:02:41.368Z,18.00
2018-08-16T06:05:10.928Z,18.10
2018-08-16T06:07:39.206Z,18.20
2018-08-16T06:10:09.094Z,18.20
2018-08-16T06:12:37.307Z,18.30
2018-08-16T06:15:07.104Z,18.50
2018-08-16T06:17:35.295Z,18.60
2018-08-16T06:20:06.120Z,18.70
2018-08-16T06:22:34.360Z,18.80
2018-08-16T06:25:02.865Z,18.90
2018-08-16T06:27:31.099Z,19.00
2018-08-16T06:30:00.865Z,19.20
2018-08-16T06:32:29.638Z,19.30
2018-08-16T06:34:58.226Z,19.30
2018-08-16T06:37:26.675Z,19.30
2018-08-16T06:39:55.278Z,19.30
2018-08-16T06:42:24.025Z,19.30
2018-08-16T06:47:22.492Z,19.40
2018-08-16T06:49:50.944Z,19.40
2018-08-16T06:52:19.404Z,19.50
2018-08-16T06:54:47.953Z,19.70
2018-08-16T06:57:16.768Z,19.80
2018-08-16T06:59:45.060Z,19.90
2018-08-16T07:02:13.737Z,20.10
2018-08-16T07:04:41.955Z,20.20
2018-08-16T07:07:10.189Z,20.50
2018-08-16T07:09:38.444Z,20.40
2018-08-16T07:12:06.663Z,20.50
2018-08-16T07:14:35.147Z,20.60
2018-08-16T07:17:04.219Z,20.80
2018-08-16T07:19:32.733Z,20.80
2018-08-16T07:22:01.058Z,20.80
2018-08-16T07:24:29.659Z,21.00
2018-08-16T07:26:58.091Z,21.00
2018-08-16T07:29:26.625Z,21.20
2018-08-16T07:31:54.829Z,21.40
2018-08-16T07:34:23.234Z,21.40
2018-08-16T07:36:51.949Z,21.50
2018-08-16T07:39:20.141Z,21.70
2018-08-16T07:41:48.338Z,21.80
2018-08-16T07:44:16.548Z,22.00
2018-08-16T07:46:44.725Z,22.00
2018-08-16T07:49:13.245Z,22.20
2018-08-16T07:51:42.034Z,22.20
2018-08-16T07:54:10.079Z,22.30
2018-08-16T07:56:38.789Z,22.50
2018-08-16T07:59:07.892Z,22.60
2018-08-16T08:01:36.467Z,22.70
2018-08-16T08:04:04.675Z,22.80
2018-08-16T08:06:33.401Z,22.80
2018-08-16T08:09:01.883Z,22.90
2018-08-16T08:11:37.607Z,22.90
2018-08-16T08:14:07.104Z,23.00
2018-08-16T08:16:35.489Z,23.10
2018-08-16T08:19:04.237Z,23.20
2018-08-16T08:21:32.645Z,23.30
2018-08-16T08:24:01.090Z,23.30
2018-08-16T08:26:29.289Z,23.50
2018-08-16T08:28:57.527Z,23.40
2018-08-16T08:31:26.095Z,23.60
2018-08-16T08:33:54.608Z,23.70
2018-08-16T08:36:40.056Z,23.80
2018-08-16T08:39:09.386Z,23.90
2018-08-16T08:41:37.869Z,24.10
2018-08-16T08:44:17.239Z,24.00
2018-08-16T08:46:47.180Z,24.10
2018-08-16T08:49:15.820Z,24.20
2018-08-16T08:51:45.588Z,24.30
2018-08-16T08:54:53.769Z,24.40
2018-08-16T08:57:39.630Z,24.50
2018-08-16T09:00:08.592Z,24.70
2018-08-16T09:02:37.576Z,24.80
2018-08-16T09:05:06.562Z,25.00
2018-08-16T09:07:34.830Z,25.10
2018-08-16T09:11:18.899Z,25.20
2018-08-16T09:14:06.552Z,25.40
2018-08-16T09:16:39.672Z,26.00
2018-08-16T09:19:08.698Z,25.90
2018-08-16T09:21:37.279Z,25.90
2018-08-16T09:24:05.611Z,26.10
2018-08-16T09:26:40.198Z,26.20
2018-08-16T09:30:29.192Z,26.30
2018-08-16T09:33:14.493Z,26.30
2018-08-16T09:35:42.761Z,26.20
2018-08-16T09:38:11.748Z,26.30
2018-08-16T09:40:40.317Z,26.30
2018-08-16T09:43:08.831Z,26.40
2018-08-16T09:46:59.379Z,26.70
2018-08-16T09:49:29.048Z,26.70
2018-08-16T09:51:57.646Z,27.00
2018-08-16T09:54:25.945Z,27.20
2018-08-16T09:56:55.317Z,27.30
2018-08-16T09:59:24.104Z,27.30
2018-08-16T10:01:53.304Z,27.50
2018-08-16T10:04:21.481Z,27.30
2018-08-16T10:06:50.010Z,27.30
2018-08-16T10:09:20.946Z,27.50
2018-08-16T10:11:49.816Z,27.60
2018-08-16T10:14:18.426Z,27.90
2018-08-16T10:16:46.888Z,28.10
2018-08-16T10:19:15.357Z,28.10
2018-08-16T10:21:43.884Z,28.20
2018-08-16T10:24:13.372Z,28.20
2018-08-16T10:26:42.725Z,28.40
2018-08-16T10:29:11.515Z,28.70
2018-08-16T10:31:40.380Z,29.00
2018-08-16T10:34:08.563Z,29.30
2018-08-16T10:36:37.100Z,29.60
2018-08-16T10:39:09.185Z,29.70
2018-08-16T10:41:37.826Z,29.50
2018-08-16T10:44:06.207Z,29.50
2018-08-16T10:46:34.382Z,29.40
2018-08-16T10:49:02.866Z,29.50
2018-08-16T10:51:31.217Z,29.60
2018-08-16T10:53:59.439Z,29.90
2018-08-16T10:56:27.924Z,29.90
2018-08-16T10:58:56.761Z,30.00
2018-08-16T11:01:25.000Z,29.80
2018-08-16T11:03:53.378Z,29.70
2018-08-16T11:06:21.635Z,29.70
2018-08-16T11:08:49.828Z,29.70
2018-08-16T11:11:18.416Z,29.90
2018-08-16T11:16:15.362Z,30.40
2018-08-16T11:18:43.611Z,30.60
2018-08-16T11:21:12.088Z,30.70
2018-08-16T11:23:40.843Z,30.90
2018-08-16T11:26:09.092Z,31.00
2018-08-16T11:28:37.610Z,30.90
2018-08-16T11:31:05.889Z,30.80
2018-08-16T11:33:34.643Z,30.60
2018-08-16T11:36:02.831Z,30.60
2018-08-16T11:38:31.327Z,30.40
2018-08-16T11:40:59.772Z,30.60
2018-08-16T11:43:28.101Z,31.20
2018-08-16T11:45:56.316Z,31.20
2018-08-16T11:48:25.049Z,31.40
2018-08-16T11:50:53.284Z,31.30
2018-08-16T11:53:21.906Z,31.30
2018-08-16T11:55:50.476Z,31.30
2018-08-16T11:58:18.686Z,31.30
2018-08-16T12:00:47.860Z,31.40
2018-08-16T12:03:16.637Z,31.70
2018-08-16T12:05:44.795Z,31.30
2018-08-16T12:08:12.982Z,31.40
2018-08-16T12:10:41.139Z,31.40
2018-08-16T12:13:11.480Z,31.20
2018-08-16T12:15:42.805Z,31.20
2018-08-16T12:18:10.996Z,31.20
2018-08-16T12:20:39.202Z,31.40
2018-08-16T12:23:07.661Z,31.60
2018-08-16T12:25:36.114Z,31.70
2018-08-16T12:28:04.537Z,32.00
2018-08-16T12:30:32.860Z,31.90
2018-08-16T12:33:01.022Z,31.80
2018-08-16T12:35:29.546Z,31.90
2018-08-16T12:37:57.696Z,32.00
2018-08-16T12:40:26.196Z,32.10
2018-08-16T12:42:54.676Z,32.50
2018-08-16T12:45:23.126Z,32.50
2018-08-16T12:47:51.442Z,32.60
2018-08-16T12:50:19.602Z,32.50
2018-08-16T12:52:48.118Z,32.30
2018-08-16T12:55:16.615Z,32.30
2018-08-16T12:57:44.794Z,32.40
2018-08-16T13:00:16.633Z,32.50
2018-08-16T13:02:46.583Z,32.70
2018-08-16T13:05:14.742Z,32.50
2018-08-16T13:07:43.210Z,32.50
2018-08-16T13:10:12.753Z,32.80
2018-08-16T13:12:40.968Z,32.90
2018-08-16T13:15:10.450Z,33.00
2018-08-16T13:17:39.300Z,33.10
2018-08-16T13:20:08.686Z,33.30
2018-08-16T13:22:37.949Z,33.10
2018-08-16T13:25:06.909Z,32.80
2018-08-16T13:27:35.216Z,32.30
2018-08-16T13:30:04.308Z,32.10
2018-08-16T13:32:33.509Z,32.10
2018-08-16T13:35:01.697Z,32.50
2018-08-16T13:37:30.223Z,32.70
2018-08-16T13:39:58.778Z,33.20
2018-08-16T13:42:27.115Z,33.90
2018-08-16T13:44:55.482Z,34.30
2018-08-16T13:47:24.084Z,34.90
2018-08-16T13:49:53.288Z,35.60
2018-08-16T13:52:21.481Z,35.90
2018-08-16T13:54:49.707Z,36.50
2018-08-16T13:57:18.142Z,37.50
2018-08-16T13:59:46.336Z,38.50
2018-08-16T14:02:17.786Z,39.40
2018-08-16T14:04:45.997Z,40.10
2018-08-16T14:07:14.223Z,40.10
2018-08-16T14:09:42.481Z,39.90
2018-08-16T14:12:10.717Z,40.40
2018-08-16T14:14:38.933Z,40.30
2018-08-16T14:17:07.169Z,40.20
2018-08-16T14:19:35.588Z,40.30
2018-08-16T14:22:03.744Z,40.40
2018-08-16T14:24:31.921Z,40.50
2018-08-16T14:27:00.258Z,40.80
2018-08-16T14:29:28.679Z,41.00
2018-08-16T14:31:57.857Z,41.90
2018-08-16T14:34:26.127Z,42.00
2018-08-16T14:36:54.318Z,41.50
2018-08-16T14:39:22.553Z,41.30
2018-08-16T14:41:50.745Z,41.30
2018-08-16T14:44:18.945Z,41.30
2018-08-16T14:46:47.093Z,41.00
2018-08-16T14:49:15.602Z,41.30
2018-08-16T14:51:44.488Z,41.70
2018-08-16T14:54:12.689Z,41.60
2018-08-16T14:56:40.868Z,41.60
2018-08-16T14:59:09.011Z,42.20
2018-08-16T15:01:37.231Z,42.00
2018-08-16T15:04:05.718Z,41.00
2018-08-16T15:06:33.896Z,41.00
2018-08-16T15:09:02.477Z,41.10
2018-08-16T15:11:30.707Z,41.00
2018-08-16T15:13:58.960Z,40.10
2018-08-16T15:16:27.435Z,39.40
2018-08-16T15:18:55.936Z,39.90
2018-08-16T15:21:24.844Z,40.70
2018-08-16T15:23:53.066Z,39.60
2018-08-16T15:26:21.928Z,38.60
2018-08-16T15:28:50.284Z,38.70
2018-08-16T15:31:18.925Z,38.40
2018-08-16T15:33:47.702Z,38.20
2018-08-16T15:36:15.942Z,38.80
2018-08-16T15:38:44.462Z,38.80
2018-08-16T15:41:12.687Z,38.70
2018-08-16T15:43:41.349Z,38.00
2018-08-16T15:46:09.544Z,38.70
2018-08-16T15:48:37.722Z,38.90
2018-08-16T15:51:06.154Z,38.90
2018-08-16T15:53:35.696Z,38.00
2018-08-16T15:56:03.933Z,38.00
2018-08-16T15:58:32.212Z,37.90
2018-08-16T16:01:00.559Z,38.00
2018-08-16T16:03:29.039Z,39.00
2018-08-16T16:05:57.266Z,40.00
2018-08-16T16:08:25.660Z,40.30
2018-08-16T16:10:54.141Z,39.50
2018-08-16T16:13:22.708Z,38.90
2018-08-16T16:15:51.833Z,38.40
2018-08-16T16:18:20.004Z,38.40
2018-08-16T16:20:48.787Z,38.90
2018-08-16T16:23:17.572Z,39.00
2018-08-16T16:25:45.800Z,39.40
2018-08-16T16:28:14.068Z,38.80
2018-08-16T16:30:42.774Z,38.20
2018-08-16T16:33:11.539Z,38.00
2018-08-16T16:35:40.067Z,38.60
2018-08-16T16:38:08.581Z,38.10
2018-08-16T16:40:37.070Z,38.50
2018-08-16T16:43:05.990Z,38.20
2018-08-16T16:45:34.816Z,38.30
2018-08-16T16:48:03.228Z,38.50
2018-08-16T16:50:31.780Z,38.90
2018-08-16T16:53:00.729Z,38.20
2018-08-16T16:55:29.545Z,37.40
2018-08-16T16:57:57.836Z,37.00
2018-08-16T17:00:26.042Z,37.20
2018-08-16T17:02:54.248Z,36.90
2018-08-16T17:05:22.442Z,36.90
2018-08-16T17:07:50.642Z,36.60
2018-08-16T17:10:19.486Z,36.40
2018-08-16T17:12:47.757Z,36.60
2018-08-16T17:15:15.988Z,37.10
2018-08-16T17:17:44.778Z,36.80
2018-08-16T17:20:13.592Z,36.40
2018-08-16T17:22:42.096Z,36.00
2018-08-16T17:25:10.662Z,36.00
2018-08-16T17:27:39.008Z,36.00
2018-08-16T17:30:07.749Z,35.80
2018-08-16T17:32:36.259Z,35.40
2018-08-16T17:35:04.803Z,35.40
2018-08-16T17:37:39.830Z,35.40
2018-08-16T17:40:08.206Z,34.70
2018-08-16T17:42:36.528Z,34.30
2018-08-16T17:45:06.196Z,34.40
2018-08-16T17:47:34.832Z,34.20
2018-08-16T17:50:03.773Z,34.20
2018-08-16T17:52:32.619Z,33.40
2018-08-16T17:55:01.208Z,33.10
2018-08-16T17:57:30.040Z,32.70
2018-08-16T17:59:58.474Z,32.30
2018-08-16T18:02:26.865Z,31.90
2018-08-16T18:04:55.537Z,31.70
2018-08-16T18:07:24.321Z,31.30
2018-08-16T18:09:52.494Z,30.90
2018-08-16T18:12:20.844Z,30.90
2018-08-16T18:14:48.992Z,30.60
2018-08-16T18:17:17.572Z,30.60
2018-08-16T18:19:45.769Z,30.30
2018-08-16T18:22:14.284Z,30.20
2018-08-16T18:24:43.203Z,30.10
2018-08-16T18:27:11.664Z,30.00
2018-08-16T18:29:39.983Z,29.60
2018-08-16T18:32:08.228Z,29.50
2018-08-16T18:34:36.542Z,29.20
2018-08-16T18:37:04.969Z,28.90
2018-08-16T18:39:34.173Z,28.60
2018-08-16T18:42:02.849Z,28.30
2018-08-16T18:44:31.079Z,28.20
2018-08-16T18:46:59.304Z,28.00
2018-08-16T18:49:27.784Z,27.90
2018-08-16T18:51:56.099Z,27.70
2018-08-16T18:54:24.604Z,27.50
2018-08-16T18:56:53.057Z,27.10
2018-08-16T18:59:22.607Z,26.90
2018-08-16T19:01:51.115Z,27.10
2018-08-16T19:04:19.367Z,27.10
2018-08-16T19:06:47.635Z,26.90
2018-08-16T19:09:15.931Z,26.70
2018-08-16T19:11:44.676Z,26.70
2018-08-16T19:14:13.079Z,26.60
2018-08-16T19:16:41.268Z,26.60
2018-08-16T19:19:09.590Z,26.60
2018-08-16T19:24:07.233Z,26.50
2018-08-16T19:26:35.475Z,26.50
2018-08-16T19:29:10.423Z,26.40
2018-08-16T19:31:38.617Z,26.30
2018-08-16T19:34:07.442Z,26.30
2018-08-16T19:36:35.723Z,26.10
2018-08-16T19:39:07.098Z,26.10
2018-08-16T19:41:35.993Z,25.80
2018-08-16T19:44:04.464Z,25.80
2018-08-16T19:49:00.807Z,25.70
2018-08-16T19:51:29.619Z,25.80
2018-08-16T19:53:58.422Z,25.70
2018-08-16T19:56:26.911Z,25.60
2018-08-16T19:58:55.716Z,25.40
2018-08-16T20:01:24.381Z,25.40
2018-08-16T20:03:53.009Z,25.20
2018-08-16T20:06:21.686Z,25.40
2018-08-16T20:08:50.580Z,25.20
2018-08-16T20:11:18.953Z,25.10
2018-08-16T20:13:48.288Z,25.10
2018-08-16T20:16:16.525Z,25.10
2018-08-16T20:18:44.733Z,25.00
2018-08-16T20:21:13.579Z,25.00
2018-08-16T20:23:42.320Z,24.90
2018-08-16T20:26:10.555Z,24.90
2018-08-16T20:33:36.472Z,24.70
2018-08-16T20:36:05.508Z,24.60
2018-08-16T20:38:34.138Z,24.50
2018-08-16T20:41:02.448Z,24.40
2018-08-16T20:43:31.159Z,24.40
2018-08-16T20:45:59.700Z,24.40
2018-08-16T20:48:28.259Z,24.30
2018-08-16T20:50:56.458Z,24.20
2018-08-16T20:53:25.046Z,24.20
2018-08-16T20:55:53.618Z,24.10
2018-08-16T20:58:22.060Z,24.00
2018-08-16T21:00:51.166Z,24.10
2018-08-16T21:03:19.380Z,24.00
2018-08-16T21:05:48.062Z,23.90
2018-08-16T21:08:16.932Z,23.90
2018-08-16T21:10:45.449Z,23.80
2018-08-16T21:13:13.635Z,23.80
2018-08-16T21:15:42.095Z,23.70
2018-08-16T21:18:10.573Z,23.70
2018-08-16T21:20:38.766Z,23.60
2018-08-16T21:23:07.818Z,23.50
2018-08-16T21:25:35.984Z,23.50
2018-08-16T21:28:04.203Z,23.40
2018-08-16T21:30:32.417Z,23.30
2018-08-16T21:33:01.619Z,23.30
2018-08-16T21:35:30.391Z,23.30
2018-08-16T21:37:58.840Z,23.30
2018-08-16T21:40:28.190Z,23.30
2018-08-16T21:42:56.719Z,23.20
2018-08-16T21:45:24.975Z,23.20
2018-08-16T21:47:53.441Z,23.10
2018-08-16T21:50:21.666Z,23.10
2018-08-16T21:52:49.936Z,23.10
2018-08-16T21:55:18.127Z,23.00
2018-08-16T21:57:46.392Z,23.00
2018-08-16T22:00:49.920Z,22.80
2018-08-16T22:03:22.304Z,22.80
2018-08-16T22:05:59.576Z,22.80
2018-08-16T22:08:39.480Z,22.80
2018-08-16T22:11:08.410Z,22.70
2018-08-16T22:13:37.126Z,22.70
2018-08-16T22:16:05.622Z,22.60
2018-08-16T22:18:34.084Z,22.60
2018-08-16T22:21:03.225Z,22.60
2018-08-16T22:23:31.923Z,22.50
2018-08-16T22:26:00.394Z,22.50
2018-08-16T22:28:28.626Z,22.50
2018-08-16T22:30:57.217Z,22.50
2018-08-16T22:33:26.319Z,22.40
2018-08-16T22:35:54.506Z,22.40
2018-08-16T22:38:24.081Z,22.40
2018-08-16T22:40:52.333Z,22.40
2018-08-16T22:43:21.196Z,22.20
2018-08-16T22:45:49.529Z,22.20
2018-08-16T22:48:17.982Z,22.10
2018-08-16T22:50:47.571Z,22.10
2018-08-16T22:53:16.064Z,22.10
2018-08-16T22:55:44.277Z,22.10
2018-08-16T22:58:12.539Z,22.00
2018-08-16T23:00:40.713Z,22.00
2018-08-16T23:03:09.189Z,21.90
2018-08-16T23:05:37.547Z,21.90
2018-08-16T23:08:06.274Z,21.90
2018-08-16T23:10:35.544Z,21.90
2018-08-16T23:13:03.847Z,21.80
2018-08-16T23:15:32.319Z,21.80
2018-08-16T23:18:00.648Z,21.80
2018-08-16T23:20:28.882Z,21.70
2018-08-16T23:25:25.940Z,21.80
2018-08-16T23:27:54.331Z,21.70
2018-08-16T23:30:22.704Z,21.70
2018-08-16T23:32:50.860Z,21.70
2018-08-16T23:35:19.548Z,21.70
2018-08-16T23:37:47.748Z,21.60
2018-08-16T23:40:16.331Z,21.60
2018-08-16T23:42:45.333Z,21.60
2018-08-16T23:45:13.788Z,21.50
2018-08-16T23:47:48.047Z,21.50
2018-08-16T23:50:16.229Z,21.40
2018-08-16T23:52:44.720Z,21.40
2018-08-16T23:55:12.913Z,21.40
2018-08-16T23:57:41.129Z,21.40
